KELP

El Paso International Airport

El Paso, Texas, USA
KELP 251732Z 2518/2618 10013KT P6SM FEW150 SCT250 FM252200 11008KT P6SM SKC FM260600 VRB04KT P6SM FEW250
Issued Valid From Valid To
Apr-25 @ 17:32 UTC
(21 minutes ago)
Apr-25 @ 18:00 UTC
(in 7 minutes)
Apr-26 @ 18:00 UTC
(in 24 hours)
Apr-25 @ 18:00 to Apr-25 @ 22:00
KELP 251732Z 2518/2618 10013KT P6SM FEW150 SCT250
Wind Visibility Clouds
100° at 13 knots Greater than 6 miles
  • Few at 15,000' AGL
  • Scattered at 25,000' AGL
From Apr-25 @ 22:00 to Apr-26 @ 06:00
FM252200 11008KT P6SM SKC
Wind Visibility Clouds
110° at 8 knots Greater than 6 miles
  • Clear skies
From Apr-26 @ 06:00 to Apr-26 @ 18:00
FM260600 VRB04KT P6SM FEW250
Wind Visibility Clouds
Variable at 4 knots Greater than 6 miles
  • Few at 25,000' AGL
KELP 251732Z 2518/2618 10013KT P6SM FEW150 SCT250 FM252200 11008KT P6SM SKC FM260600 VRB04KT P6SM FEW250
Issued Apr-25 @ 17:32 UTC
(21 minutes ago)
Valid From Apr-25 @ 18:00 UTC
(in 7 minutes)
Valid To Apr-26 @ 18:00 UTC
(in 24 hours)
Apr-25 @ 18:00 - Apr-25 @ 22:00
Wind Visibility
100° at 13 knots Greater than 6 miles
Clouds
  • Few at 15,000' AGL
  • Scattered at 25,000' AGL
From Apr-25 @ 22:00 - Apr-26 @ 06:00
Wind Visibility
110° at 8 knots Greater than 6 miles
Clouds
  • Clear skies
From Apr-26 @ 06:00 - Apr-26 @ 18:00
Wind Visibility
Variable at 4 knots Greater than 6 miles
Clouds
  • Few at 25,000' AGL